Time;durP1;ratioP1;P1;durP2;ratioP2;P2;SDS_P1;SDS_P2;PMS_P1;PMS_P2;Temp;Humidity;BMP_temperature;BMP_pressure;BME280_temperature;BME280_humidity;BME280_pressure;Samples;Min_cycle;Max_cycle;Signal;HPM_P1;HPM_P2
2021/01/25 00:01:19;;;;;;;21.85;13.85;;;;;;;-0.14;95.88;99897.41;5109143;28;20028;-76
2021/01/25 00:03:47;;;;;;;19.60;14.70;;;;;;;-0.15;95.79;99903.69;5118095;28;20035;-76
2021/01/25 00:06:13;;;;;;;24.63;15.45;;;;;;;-0.13;96.39;99895.56;5105824;28;20024;-76
2021/01/25 00:08:38;;;;;;;19.10;14.63;;;;;;;-0.15;95.76;99897.56;5102737;28;20042;-76
2021/01/25 00:11:04;;;;;;;19.87;16.10;;;;;;;-0.18;96.13;99897.94;5099769;28;20036;-75
2021/01/25 00:13:29;;;;;;;22.73;15.73;;;;;;;-0.19;95.89;99897.13;5112505;28;20032;-76
2021/01/25 00:15:54;;;;;;;20.53;16.10;;;;;;;-0.20;95.84;99894.63;5110558;28;20043;-76
2021/01/25 00:18:19;;;;;;;17.50;15.30;;;;;;;-0.22;96.00;99891.34;5106122;28;20032;-76
2021/01/25 00:20:45;;;;;;;21.53;15.37;;;;;;;-0.22;95.69;99894.81;5109098;28;20027;-76
2021/01/25 00:23:10;;;;;;;20.83;15.47;;;;;;;-0.28;95.80;99896.38;5104438;28;20102;-76
2021/01/25 00:25:36;;;;;;;15.53;13.00;;;;;;;-0.23;96.13;99900.34;5104504;28;20056;-76
2021/01/25 00:28:07;;;;;;;19.57;14.23;;;;;;;-0.23;95.96;99895.03;5108201;28;20043;-76
2021/01/25 00:30:35;;;;;;;20.25;13.93;;;;;;;-0.26;96.25;99896.19;5100857;28;20032;-76
2021/01/25 00:33:06;;;;;;;17.52;12.98;;;;;;;-0.23;95.67;99895.03;5099244;28;20027;-76
2021/01/25 00:35:32;;;;;;;18.15;14.10;;;;;;;-0.26;95.87;99891.72;5102345;28;20102;-76
2021/01/25 00:37:57;;;;;;;23.70;13.80;;;;;;;-0.25;95.73;99892.53;5078962;28;20194;-76
2021/01/25 00:40:23;;;;;;;19.37;14.27;;;;;;;-0.27;96.77;99900.69;5103175;28;20446;-76
2021/01/25 00:42:51;;;;;;;20.03;13.43;;;;;;;-0.26;96.44;99901.50;5095935;28;20417;-76
2021/01/25 00:45:16;;;;;;;18.35;13.45;;;;;;;-0.24;96.78;99902.16;5116545;28;20026;-76
2021/01/25 00:47:45;;;;;;;20.93;13.77;;;;;;;-0.23;95.82;99889.72;5088009;28;20039;-76
2021/01/25 00:50:10;;;;;;;17.50;13.95;;;;;;;-0.26;96.98;99901.50;5085745;28;20039;-76
2021/01/25 00:52:36;;;;;;;18.38;13.05;;;;;;;-0.24;96.56;99898.66;5111913;28;20081;-76
2021/01/25 00:55:01;;;;;;;17.77;13.27;;;;;;;-0.24;96.96;99898.66;5099827;28;20028;-76
2021/01/25 00:57:26;;;;;;;17.17;13.67;;;;;;;-0.24;96.70;99901.31;5116298;28;20035;-76
2021/01/25 00:59:52;;;;;;;18.13;12.73;;;;;;;-0.22;96.58;99901.97;5096903;28;20107;-76
2021/01/25 01:02:18;;;;;;;18.08;14.23;;;;;;;-0.23;96.22;99905.66;5110490;28;20122;-76
2021/01/25 01:04:43;;;;;;;19.50;14.13;;;;;;;-0.23;96.42;99901.16;5100061;28;20393;-76
2021/01/25 01:07:08;;;;;;;19.13;13.40;;;;;;;-0.19;96.33;99909.59;5077851;28;20046;-76
2021/01/25 01:09:34;;;;;;;17.23;14.30;;;;;;;-0.20;96.32;99908.75;5106393;28;20019;-76
2021/01/25 01:11:59;;;;;;;19.97;14.53;;;;;;;-0.18;96.34;99912.06;5090983;28;20299;-76
2021/01/25 01:14:24;;;;;;;18.37;15.07;;;;;;;-0.17;96.62;99913.69;5101087;28;20475;-76
2021/01/25 01:16:51;;;;;;;23.97;16.17;;;;;;;-0.18;97.30;99914.72;5109062;28;20024;-76
2021/01/25 01:19:17;;;;;;;20.92;15.88;;;;;;;-0.16;96.32;99922.50;5108930;28;20077;-76
2021/01/25 01:21:42;;;;;;;25.37;15.67;;;;;;;-0.16;96.85;99917.19;5112110;28;20016;-76
2021/01/25 01:24:07;;;;;;;20.87;16.30;;;;;;;-0.15;96.02;99921.47;5109065;28;20023;-75
2021/01/25 01:26:33;;;;;;;21.93;16.83;;;;;;;-0.12;96.51;99923.78;5082473;28;20131;-76
2021/01/25 01:28:58;;;;;;;26.70;19.03;;;;;;;-0.15;96.18;99924.13;5109982;28;20401;-76
2021/01/25 01:31:24;;;;;;;22.97;17.97;;;;;;;-0.15;97.04;99922.31;5111495;28;20081;-75
2021/01/25 01:33:49;;;;;;;29.13;20.33;;;;;;;-0.16;96.73;99920.66;5100888;28;20051;-76
2021/01/25 01:36:14;;;;;;;28.83;22.57;;;;;;;-0.15;95.81;99921.47;5108872;28;20058;-76
2021/01/25 01:38:40;;;;;;;28.17;22.53;;;;;;;-0.14;96.32;99929.28;5104188;28;20316;-76
2021/01/25 01:41:06;;;;;;;28.25;21.55;;;;;;;-0.13;96.39;99930.09;5115507;28;20023;-76
2021/01/25 01:43:31;;;;;;;31.97;24.20;;;;;;;-0.11;96.06;99933.41;5088633;28;20028;-76
2021/01/25 01:45:56;;;;;;;31.57;24.57;;;;;;;-0.13;95.91;99938.09;5109235;28;20023;-75
2021/01/25 01:48:22;;;;;;;34.37;27.53;;;;;;;-0.13;95.80;99933.59;5098199;28;20102;-76
2021/01/25 01:50:47;;;;;;;35.08;28.40;;;;;;;-0.13;95.73;99938.09;5114304;28;20069;-76
2021/01/25 01:53:13;;;;;;;35.77;27.70;;;;;;;-0.13;95.83;99932.78;5082382;28;20035;-76
2021/01/25 01:55:38;;;;;;;36.93;27.23;;;;;;;-0.11;95.96;99936.06;5115472;28;20028;-75
2021/01/25 01:58:04;;;;;;;38.17;28.67;;;;;;;-0.13;95.80;99935.44;5095252;28;20040;-76
2021/01/25 02:00:30;;;;;;;43.33;32.40;;;;;;;-0.15;95.71;99934.75;5115536;28;20459;-76
2021/01/25 02:02:55;;;;;;;39.40;29.85;;;;;;;-0.13;94.97;99938.09;5093805;28;20044;-76
2021/01/25 02:05:22;;;;;;;41.08;32.17;;;;;;;-0.16;95.90;99938.44;5114658;28;20020;-76
2021/01/25 02:07:52;;;;;;;42.63;32.22;;;;;;;-0.13;96.02;99943.41;5099640;28;20321;-75
2021/01/25 02:10:20;;;;;;;44.72;32.85;;;;;;;-0.14;95.89;99947.06;5111860;28;20417;-76
2021/01/25 02:12:55;;;;;;;44.25;34.20;;;;;;;-0.13;95.96;99954.03;5083818;28;20332;-76
2021/01/25 02:15:22;;;;;;;52.53;36.70;;;;;;;-0.10;96.03;99948.31;5113523;28;20028;-75
2021/01/25 02:17:49;;;;;;;42.05;34.33;;;;;;;-0.14;96.38;99952.38;5103711;28;20035;-76
2021/01/25 02:20:30;;;;;;;50.55;34.85;;;;;;;-0.13;96.11;99960.16;5097262;28;20028;-76
2021/01/25 02:23:23;;;;;;;46.17;33.13;;;;;;;-0.09;95.75;99961.44;5102795;28;20036;-76
2021/01/25 02:26:11;;;;;;;43.50;34.45;;;;;;;-0.08;95.31;99962.28;5112657;28;20036;-75
2021/01/25 02:28:39;;;;;;;43.47;34.95;;;;;;;-0.10;95.43;99958.97;5087143;28;20033;-76
2021/01/25 02:31:08;;;;;;;46.88;35.15;;;;;;;-0.11;95.65;99957.31;5087864;28;20304;-76
2021/01/25 02:33:39;;;;;;;48.58;35.83;;;;;;;-0.09;95.45;99963.28;5109532;28;20027;-76
2021/01/25 02:36:05;;;;;;;44.67;34.75;;;;;;;-0.09;96.45;99961.44;5101564;28;20096;-76
2021/01/25 02:38:31;;;;;;;49.72;37.85;;;;;;;-0.10;95.95;99959.81;5111315;28;20024;-75
2021/01/25 02:40:59;;;;;;;49.95;37.05;;;;;;;-0.10;96.25;99959.81;5098386;28;20077;-76
2021/01/25 02:43:26;;;;;;;50.28;36.00;;;;;;;-0.08;95.66;99962.28;5118865;28;20027;-76
2021/01/25 02:45:52;;;;;;;52.22;38.42;;;;;;;-0.09;95.95;99966.75;5108497;28;20063;-76
2021/01/25 02:48:18;;;;;;;51.58;39.08;;;;;;;-0.08;96.38;99970.25;5119686;28;20114;-76
2021/01/25 02:50:51;;;;;;;51.50;38.20;;;;;;;-0.07;96.34;99974.53;5097287;28;20370;-76
2021/01/25 02:53:16;;;;;;;52.50;38.95;;;;;;;-0.10;95.54;99973.09;5080147;28;20032;-76
2021/01/25 02:55:42;;;;;;;50.97;38.47;;;;;;;-0.09;96.18;99972.09;5098764;28;20325;-75
2021/01/25 02:58:09;;;;;;;55.10;39.85;;;;;;;-0.10;95.88;99975.75;5103007;28;20015;-76
2021/01/25 03:00:34;;;;;;;;;;;;;;;-0.03;96.04;99971.34;5102142;28;20032;-76
2021/01/25 03:03:01;;;;;;;55.67;40.30;;;;;;;-0.07;95.39;99977.22;5112835;28;20372;-76
2021/01/25 03:05:28;;;;;;;63.97;41.88;;;;;;;-0.07;96.67;99974.53;5112661;28;20153;-76
2021/01/25 03:07:56;;;;;;;57.22;40.72;;;;;;;-0.06;95.29;99973.53;5082404;28;20028;-76
2021/01/25 03:10:21;;;;;;;59.58;42.15;;;;;;;-0.06;96.50;99970.88;5114087;28;20024;-76
2021/01/25 03:12:47;;;;;;;58.97;42.33;;;;;;;-0.07;96.03;99979.88;5080151;28;20437;-76
2021/01/25 03:15:16;;;;;;;64.30;44.63;;;;;;;-0.08;95.86;99981.69;5097985;28;20465;-76
2021/01/25 03:17:41;;;;;;;58.38;43.75;;;;;;;-0.12;95.88;99977.75;5089068;28;20038;-76
2021/01/25 03:20:07;;;;;;;61.53;43.23;;;;;;;-0.08;95.98;99986.19;5100856;28;20098;-76
2021/01/25 03:22:32;;;;;;;68.00;48.47;;;;;;;-0.08;96.88;99987.00;5099642;28;20046;-76
2021/01/25 03:24:57;;;;;;;64.53;46.07;;;;;;;-0.10;96.28;99993.50;5118547;28;20065;-76
2021/01/25 03:27:23;;;;;;;68.40;44.60;;;;;;;-0.07;96.45;99990.50;5095420;28;20039;-76
2021/01/25 03:29:48;;;;;;;66.53;45.27;;;;;;;-0.08;95.94;99997.66;5118951;28;20106;-76
2021/01/25 03:32:13;;;;;;;63.53;46.03;;;;;;;-0.06;96.05;100000.94;5081587;28;20040;-76
2021/01/25 03:34:38;;;;;;;65.30;45.70;;;;;;;-0.05;96.00;100009.72;5118818;28;20027;-76
2021/01/25 03:37:04;;;;;;;70.67;46.33;;;;;;;-0.09;95.72;100005.81;5095784;28;20636;-76
2021/01/25 03:39:30;;;;;;;73.05;49.03;;;;;;;-0.07;96.00;100011.75;5103630;28;20027;-76
2021/01/25 03:41:55;;;;;;;66.87;43.83;;;;;;;-0.08;95.92;100020.75;5117693;28;20044;-76
2021/01/25 03:44:20;;;;;;;67.63;46.03;;;;;;;-0.10;95.75;100022.75;5097873;28;20024;-76
2021/01/25 03:46:46;;;;;;;68.13;44.20;;;;;;;-0.07;96.79;100017.06;5079480;28;20075;-76
2021/01/25 03:49:16;;;;;;;68.78;45.38;;;;;;;-0.05;96.75;100020.34;5113707;28;20023;-76
2021/01/25 03:51:41;;;;;;;65.68;47.78;;;;;;;-0.12;95.62;100028.25;5116424;28;20058;-76
2021/01/25 03:54:09;;;;;;;67.22;46.03;;;;;;;-0.06;96.59;100029.34;5104782;28;20457;-76
2021/01/25 03:56:34;;;;;;;66.22;44.45;;;;;;;-0.10;96.22;100028.91;5084852;28;20111;-76
2021/01/25 03:58:59;;;;;;;60.53;42.83;;;;;;;-0.09;96.14;100040.38;5110236;28;20126;-76
2021/01/25 04:01:24;;;;;;;61.57;44.67;;;;;;;-0.13;96.48;100039.06;5115968;28;20024;-76
2021/01/25 04:03:50;;;;;;;64.63;45.07;;;;;;;-0.07;96.14;100043.66;5112397;28;20028;-76
2021/01/25 04:06:17;;;;;;;65.73;45.30;;;;;;;-0.12;96.71;100046.03;5106466;28;20092;-76
2021/01/25 04:08:42;;;;;;;65.72;44.40;;;;;;;-0.14;95.97;100054.19;5118121;28;20019;-76
2021/01/25 04:11:07;;;;;;;64.80;44.93;;;;;;;-0.14;95.88;100056.03;5107271;28;20081;-76
2021/01/25 04:13:32;;;;;;;64.90;44.20;;;;;;;-0.16;95.93;100061.50;5117549;28;20038;-76
2021/01/25 04:15:58;;;;;;;68.00;46.87;;;;;;;-0.16;96.60;100064.16;5106592;28;20107;-76
2021/01/25 04:18:23;;;;;;;65.13;45.67;;;;;;;-0.18;96.82;100063.53;5115476;28;20102;-76
2021/01/25 04:20:48;;;;;;;62.07;43.00;;;;;;;-0.17;96.38;100075.81;5096791;28;20652;-76
2021/01/25 04:23:14;;;;;;;66.17;45.30;;;;;;;-0.19;95.96;100074.34;5108596;28;20176;-76
2021/01/25 04:25:39;;;;;;;63.87;47.00;;;;;;;-0.22;96.75;100077.34;5109335;28;20040;-76
2021/01/25 04:28:04;;;;;;;64.80;44.40;;;;;;;-0.25;96.88;100081.19;5106877;28;20039;-76
2021/01/25 04:30:30;;;;;;;64.33;45.30;;;;;;;-0.27;96.65;100083.19;5117357;28;20081;-76
2021/01/25 04:32:55;;;;;;;64.17;45.03;;;;;;;-0.29;96.43;100083.38;5101457;28;20034;-76
2021/01/25 04:35:20;;;;;;;71.13;47.23;;;;;;;-0.33;97.14;100092.72;5116907;28;20030;-76
2021/01/25 04:37:46;;;;;;;70.30;46.20;;;;;;;-0.33;97.22;100091.88;5094091;28;20311;-76
2021/01/25 04:40:12;;;;;;;71.60;45.67;;;;;;;-0.32;97.08;100089.03;5116678;28;20027;-76
2021/01/25 04:42:38;;;;;;;69.88;46.95;;;;;;;-0.29;97.94;100096.66;5099716;28;20103;-76
2021/01/25 04:45:06;;;;;;;72.45;47.40;;;;;;;-0.30;97.47;100108.28;5098829;28;20520;-76
2021/01/25 04:47:31;;;;;;;66.38;45.75;;;;;;;-0.35;97.39;100099.19;5098711;28;20120;-76
2021/01/25 04:49:58;;;;;;;62.93;45.40;;;;;;;-0.34;96.94;100099.03;5107285;28;20102;-76
2021/01/25 04:52:23;;;;;;;;;;;;;;;-0.29;97.17;100098.50;5082560;28;20054;-76
2021/01/25 04:54:49;;;;;;;73.53;45.07;;;;;;;-0.35;97.40;100102.69;5114691;28;20296;-76
2021/01/25 04:57:15;;;;;;;73.07;46.65;;;;;;;-0.39;97.45;100098.75;5080990;28;20286;-76
2021/01/25 04:59:48;;;;;;;;;;;;;;;-0.34;96.91;100100.84;5113035;28;20362;-76
2021/01/25 05:02:13;;;;;;;69.70;47.00;;;;;;;-0.39;97.25;100106.72;5100500;28;19962;-76
2021/01/25 05:04:40;;;;;;;74.80;48.57;;;;;;;-0.44;98.04;100113.53;5096495;28;20024;-76
2021/01/25 05:07:05;;;;;;;73.65;48.40;;;;;;;-0.46;98.41;100113.72;5093997;28;20032;-76
2021/01/25 05:09:31;;;;;;;75.22;47.53;;;;;;;-0.47;98.35;100113.91;5096390;28;20024;-76
2021/01/25 05:12:01;;;;;;;73.23;48.47;;;;;;;-0.46;98.63;100127.00;5094925;28;20081;-76
2021/01/25 05:14:42;;;;;;;72.88;48.00;;;;;;;-0.42;98.01;100133.63;5094246;28;20078;-76
2021/01/25 05:17:10;;;;;;;74.45;47.30;;;;;;;-0.44;97.62;100135.66;5081046;28;20028;-76
2021/01/25 05:19:40;;;;;;;72.53;48.85;;;;;;;-0.43;97.67;100131.97;5094325;28;20028;-76
2021/01/25 05:22:19;;;;;;;73.97;48.53;;;;;;;-0.43;98.24;100134.63;5068191;28;20420;-76
2021/01/25 05:24:50;;;;;;;69.70;46.08;;;;;;;-0.41;98.40;100145.06;5107436;28;20056;-76
2021/01/25 05:27:29;;;;;;;68.68;47.13;;;;;;;-0.41;98.31;100143.25;5085565;28;20494;-76
2021/01/25 05:30:15;;;;;;;67.07;46.58;;;;;;;-0.42;97.76;100141.59;5104230;28;20031;-76
2021/01/25 05:32:54;;;;;;;68.85;47.67;;;;;;;-0.40;98.20;100144.06;5101550;28;20039;-76
2021/01/25 05:35:23;;;;;;;69.45;47.67;;;;;;;-0.42;98.72;100148.75;5111055;28;20084;-76
2021/01/25 05:37:53;;;;;;;69.20;45.90;;;;;;;-0.44;98.36;100151.59;5108867;28;20096;-76
2021/01/25 05:40:21;;;;;;;69.07;45.42;;;;;;;-0.44;97.86;100162.22;5108880;28;20039;-76
2021/01/25 05:42:46;;;;;;;69.82;45.35;;;;;;;-0.45;97.96;100157.06;5102440;28;20024;-76
2021/01/25 05:45:12;;;;;;;72.13;46.17;;;;;;;-0.47;98.07;100157.25;5106743;28;20034;-76
2021/01/25 05:47:48;;;;;;;70.32;45.42;;;;;;;-0.43;99.20;100163.84;5087369;28;20365;-76
2021/01/25 05:50:34;;;;;;;64.88;44.08;;;;;;;-0.41;98.96;100171.63;5103357;28;20028;-76
2021/01/25 05:53:05;;;;;;;69.53;45.00;;;;;;;-0.40;98.85;100171.44;5103478;28;20031;-76
2021/01/25 05:55:30;;;;;;;67.07;43.67;;;;;;;-0.38;98.66;100164.16;5106479;28;20028;-76
2021/01/25 05:57:59;;;;;;;58.80;41.65;;;;;;;-0.35;98.32;100174.41;5104373;28;20020;-76
2021/01/25 06:00:27;;;;;;;66.45;44.53;;;;;;;-0.34;97.90;100170.78;5109609;28;20058;-76
2021/01/25 06:02:56;;;;;;;65.90;45.72;;;;;;;-0.32;98.63;100174.06;5104057;28;20397;-76
2021/01/25 06:05:30;;;;;;;66.57;43.65;;;;;;;-0.29;98.63;100181.69;5108766;28;20035;-76
2021/01/25 06:08:16;;;;;;;67.57;43.75;;;;;;;-0.27;98.10;100190.31;5103186;28;20026;-76
2021/01/25 06:10:45;;;;;;;60.75;42.33;;;;;;;-0.25;98.25;100195.44;5103654;28;20043;-76
2021/01/25 06:13:21;;;;;;;55.42;37.85;;;;;;;-0.25;97.79;100211.38;5099177;28;20020;-76
2021/01/25 06:15:50;;;;;;;58.10;39.90;;;;;;;-0.24;97.84;100206.88;5116714;28;20339;-76
2021/01/25 06:18:18;;;;;;;59.25;40.95;;;;;;;-0.23;97.44;100213.88;5109656;28;20021;-76
2021/01/25 06:20:45;;;;;;;55.00;39.65;;;;;;;-0.22;98.08;100212.88;5112100;28;20325;-76
2021/01/25 06:23:10;;;;;;;63.42;41.28;;;;;;;-0.19;98.31;100207.22;5101981;28;20020;-76
2021/01/25 06:25:37;;;;;;;59.90;40.07;;;;;;;-0.19;97.59;100218.66;5109858;28;20031;-76
2021/01/25 06:28:05;;;;;;;;;;;;;;;-0.17;96.91;100213.16;5096360;28;20292;-76
2021/01/25 06:30:31;;;;;;;54.30;38.63;;;;;;;-0.18;97.78;100224.81;5112167;28;19919;-76
2021/01/25 06:33:00;;;;;;;58.15;41.03;;;;;;;-0.19;97.54;100231.13;5102919;28;20362;-76
2021/01/25 06:35:31;;;;;;;64.93;43.20;;;;;;;-0.19;96.98;100241.75;5100858;28;20051;-76
2021/01/25 06:37:57;;;;;;;61.97;40.92;;;;;;;-0.19;98.18;100237.28;5090491;28;20015;-75
2021/01/25 06:40:29;;;;;;;57.38;39.75;;;;;;;-0.19;97.28;100241.75;5101111;28;20294;-77
2021/01/25 06:42:55;;;;;;;60.03;38.83;;;;;;;-0.20;97.96;100245.38;5104104;28;20417;-76
2021/01/25 06:45:25;;;;;;;56.08;39.10;;;;;;;-0.23;97.04;100248.41;5090193;28;20032;-76
2021/01/25 06:47:51;;;;;;;59.65;39.88;;;;;;;-0.30;97.21;100246.44;5101542;28;20020;-76
2021/01/25 06:50:18;;;;;;;64.28;38.60;;;;;;;-0.35;97.04;100250.63;5119698;28;20046;-76
2021/01/25 06:52:48;;;;;;;56.83;38.90;;;;;;;-0.42;97.52;100263.78;5105980;28;20067;-76
2021/01/25 06:55:14;;;;;;;58.88;40.63;;;;;;;-0.51;97.91;100262.16;5115989;28;20027;-76
2021/01/25 06:57:40;;;;;;;61.97;40.33;;;;;;;-0.53;98.51;100269.50;5119363;28;20028;-77
2021/01/25 07:00:10;;;;;;;60.72;40.83;;;;;;;-0.60;98.25;100265.84;5097337;28;20325;-75
2021/01/25 07:03:00;;;;;;;67.38;42.55;;;;;;;-0.68;98.35;100279.16;5092966;28;20035;-76
2021/01/25 07:05:30;;;;;;;63.60;40.67;;;;;;;-0.79;98.15;100283.84;5097665;28;20085;-77
2021/01/25 07:08:22;;;;;;;67.15;42.05;;;;;;;-0.83;98.82;100300.28;5080344;28;20028;-76
2021/01/25 07:11:00;;;;;;;67.25;42.22;;;;;;;-0.86;98.67;100305.94;5098863;28;20386;-76
2021/01/25 07:13:27;;;;;;;67.88;44.92;;;;;;;-0.89;100.00;100315.06;5102839;28;20023;-77
2021/01/25 07:15:54;;;;;;;75.00;46.17;;;;;;;-0.92;99.88;100311.94;5111726;28;20012;-76
2021/01/25 07:18:21;;;;;;;84.25;48.35;;;;;;;-0.95;100.00;100317.59;5101243;28;20020;-77
2021/01/25 07:20:48;;;;;;;75.43;47.28;;;;;;;-0.94;100.00;100328.03;5096450;28;20032;-76
2021/01/25 07:23:16;;;;;;;89.35;51.05;;;;;;;-0.95;100.00;100339.63;5103620;28;20108;-77
2021/01/25 07:25:42;;;;;;;92.28;53.17;;;;;;;-0.96;100.00;100326.53;5097921;28;20047;-77
2021/01/25 07:28:07;;;;;;;86.23;51.77;;;;;;;-0.99;100.00;100343.63;5108569;28;20329;-76
2021/01/25 07:30:32;;;;;;;99.10;53.83;;;;;;;-1.02;100.00;100346.63;5118745;28;20077;-76
2021/01/25 07:33:04;;;;;;;83.37;50.93;;;;;;;-1.02;100.00;100361.69;5118796;28;20045;-76
2021/01/25 07:35:31;;;;;;;87.30;52.15;;;;;;;-1.00;100.00;100371.16;5103740;28;20285;-75
2021/01/25 07:37:56;;;;;;;88.07;50.08;;;;;;;-1.05;100.00;100374.31;5099863;28;20312;-75
2021/01/25 07:40:23;;;;;;;93.27;54.00;;;;;;;-0.99;100.00;100372.00;5103953;28;20024;-75
2021/01/25 07:42:48;;;;;;;82.00;49.88;;;;;;;-1.04;100.00;100373.31;5094984;28;20094;-75
2021/01/25 07:45:14;;;;;;;81.50;49.97;;;;;;;-1.10;100.00;100370.50;5105140;28;20042;-75
2021/01/25 07:47:46;;;;;;;87.20;50.73;;;;;;;-1.11;100.00;100382.13;5091872;28;20034;-76
2021/01/25 07:50:12;;;;;;;75.53;48.67;;;;;;;-1.13;100.00;100394.72;5079488;28;20392;-76
2021/01/25 07:52:38;;;;;;;88.00;53.45;;;;;;;-1.16;100.00;100395.91;5111236;28;20027;-76
2021/01/25 07:55:30;;;;;;;89.20;51.78;;;;;;;-1.18;100.00;100405.81;5087956;28;20317;-76
2021/01/25 07:58:16;;;;;;;88.25;52.10;;;;;;;-1.20;100.00;100413.13;5091796;28;20036;-76
2021/01/25 08:00:42;;;;;;;88.78;53.78;;;;;;;-1.20;100.00;100413.13;5110014;28;20032;-76
2021/01/25 08:03:10;;;;;;;88.85;53.92;;;;;;;-1.22;100.00;100416.94;5114291;28;20033;-75
2021/01/25 08:05:36;;;;;;;88.03;54.75;;;;;;;-1.21;100.00;100426.56;5113804;28;20036;-75
2021/01/25 08:08:04;;;;;;;99.68;54.65;;;;;;;-1.23;100.00;100433.84;5099054;28;20024;-75
2021/01/25 08:10:31;;;;;;;95.68;55.92;;;;;;;-1.25;100.00;100441.16;5097303;28;20123;-75
2021/01/25 08:12:59;;;;;;;99.70;57.88;;;;;;;-1.20;100.00;100444.97;5107442;28;20034;-75
2021/01/25 08:15:29;;;;;;;95.30;58.40;;;;;;;-1.19;100.00;100449.28;5090814;28;20051;-76
2021/01/25 08:18:07;;;;;;;96.53;57.95;;;;;;;-1.11;100.00;100449.28;5098959;28;20056;-75
2021/01/25 08:20:37;;;;;;;90.60;55.50;;;;;;;-1.08;100.00;100451.59;5074056;28;20024;-75
2021/01/25 08:23:23;;;;;;;81.50;52.95;;;;;;;-1.06;100.00;100454.13;5111486;28;20028;-75
2021/01/25 08:25:58;;;;;;;82.47;51.83;;;;;;;-1.08;100.00;100459.56;5115671;28;20401;-75
2021/01/25 08:28:30;;;;;;;78.80;51.90;;;;;;;-1.10;100.00;100468.69;5091385;28;20422;-75
2021/01/25 08:31:17;;;;;;;77.72;51.20;;;;;;;-1.13;100.00;100471.66;5115818;28;20016;-75
2021/01/25 08:33:56;;;;;;;78.90;49.65;;;;;;;-1.14;100.00;100475.31;5077674;28;20040;-76
2021/01/25 08:36:29;;;;;;;77.85;50.20;;;;;;;-1.11;100.00;100485.63;5092153;28;20032;-76
2021/01/25 08:38:55;;;;;;;79.70;51.50;;;;;;;-1.12;100.00;100473.34;5097242;28;20035;-76
2021/01/25 08:41:28;;;;;;;76.23;49.80;;;;;;;-1.11;99.63;100481.13;5117550;28;20054;-75
2021/01/25 08:43:56;;;;;;;86.95;51.40;;;;;;;-1.07;99.84;100479.81;5092933;28;20441;-75
2021/01/25 08:46:33;;;;;;;77.22;50.42;;;;;;;-0.98;100.00;100485.13;5088835;28;20027;-76
2021/01/25 08:49:32;;;;;;;75.75;51.38;;;;;;;-0.93;100.00;100490.75;5089055;28;20099;-75
2021/01/25 08:52:05;;;;;;;74.80;50.13;;;;;;;-0.86;99.72;100499.75;5091814;28;20027;-75
2021/01/25 08:54:31;;;;;;;74.45;48.90;;;;;;;-0.79;99.05;100508.69;5098973;28;20047;-76
2021/01/25 08:56:58;;;;;;;70.93;48.22;;;;;;;-0.72;99.16;100506.22;5095069;28;20089;-76
2021/01/25 08:59:32;;;;;;;74.63;50.60;;;;;;;-0.64;98.83;100511.50;5101136;28;20340;-76
2021/01/25 09:02:08;;;;;;;76.68;50.35;;;;;;;-0.60;98.06;100511.03;5096814;28;20015;-75
2021/01/25 09:04:33;;;;;;;64.38;47.00;;;;;;;-0.55;97.92;100518.50;5112555;28;20028;-75
2021/01/25 09:06:58;;;;;;;65.77;47.30;;;;;;;-0.60;97.17;100526.13;5109429;28;20037;-75
2021/01/25 09:09:24;;;;;;;66.00;46.00;;;;;;;-0.66;96.67;100532.94;5105932;28;20019;-76
2021/01/25 09:11:49;;;;;;;66.17;45.00;;;;;;;-0.67;97.19;100535.75;5116471;28;20385;-75
2021/01/25 09:14:17;;;;;;;63.30;44.20;;;;;;;-0.67;96.71;100538.41;5116719;28;20357;-75
2021/01/25 09:16:45;;;;;;;67.78;45.40;;;;;;;-0.65;96.70;100541.72;5116710;28;20039;-75
2021/01/25 09:19:12;;;;;;;62.03;43.58;;;;;;;-0.55;96.83;100548.53;5113268;28;20030;-75
2021/01/25 09:21:37;;;;;;;56.70;40.78;;;;;;;-0.45;95.65;100545.72;5112810;28;20024;-75
2021/01/25 09:24:03;;;;;;;65.07;44.17;;;;;;;-0.38;95.63;100545.88;5093435;28;20101;-75
2021/01/25 09:26:28;;;;;;;53.70;39.95;;;;;;;-0.36;94.43;100547.38;5097959;28;20480;-76
2021/01/25 09:28:53;;;;;;;52.17;40.70;;;;;;;-0.32;94.93;100543.38;5070120;28;20048;-76
2021/01/25 09:31:22;;;;;;;59.47;42.33;;;;;;;-0.24;94.80;100555.00;5106141;28;20028;-76
2021/01/25 09:33:47;;;;;;;59.78;42.33;;;;;;;-0.17;94.34;100553.34;5101492;28;20049;-76
2021/01/25 09:36:12;;;;;;;54.60;39.07;;;;;;;-0.15;93.40;100562.78;5104136;28;20033;-76
2021/01/25 09:38:38;;;;;;;50.43;36.13;;;;;;;-0.17;92.28;100558.66;5079875;28;20374;-78
2021/01/25 09:41:03;;;;;;;53.87;38.30;;;;;;;-0.11;93.19;100569.44;5099213;28;20436;-76
2021/01/25 09:43:28;;;;;;;53.47;39.67;;;;;;;-0.01;93.51;100569.25;5083027;28;20032;-76
2021/01/25 09:45:54;;;;;;;49.97;36.13;;;;;;;0.02;92.42;100558.28;5096147;28;20059;-75
2021/01/25 09:48:19;;;;;;;50.77;35.93;;;;;;;0.08;92.25;100570.06;5103851;28;20073;-76
2021/01/25 09:50:47;;;;;;;54.20;37.93;;;;;;;0.18;93.76;100574.19;5108472;28;20344;-75
2021/01/25 09:53:13;;;;;;;43.72;32.45;;;;;;;0.28;91.15;100584.63;5084862;28;20019;-76
2021/01/25 09:55:39;;;;;;;;;;;;;;;0.41;92.53;100600.09;5098701;28;20109;-75
2021/01/25 09:58:04;;;;;;;41.13;31.38;;;;;;;0.45;90.83;100601.41;5116162;28;19912;-74
2021/01/25 10:00:30;;;;;;;41.07;31.33;;;;;;;0.55;89.73;100602.03;5116365;28;20027;-77
2021/01/25 10:02:55;;;;;;;40.60;28.60;;;;;;;0.58;90.22;100612.31;5106295;28;20064;-75
2021/01/25 10:05:21;;;;;;;40.13;28.87;;;;;;;0.66;88.97;100611.47;5090896;28;20070;-75
2021/01/25 10:07:46;;;;;;;37.00;27.23;;;;;;;0.73;89.44;100620.41;5114484;28;20465;-76
2021/01/25 10:10:14;;;;;;;39.50;28.70;;;;;;;0.77;89.59;100627.06;5100006;28;20273;-76
2021/01/25 10:12:39;;;;;;;35.85;26.40;;;;;;;0.84;87.77;100629.88;5093502;28;20081;-74
2021/01/25 10:15:07;;;;;;;31.90;24.05;;;;;;;0.84;86.77;100624.56;5095662;28;20367;-75
2021/01/25 10:17:33;;;;;;;36.58;27.10;;;;;;;0.87;87.72;100630.34;5095511;28;20085;-75
2021/01/25 10:19:59;;;;;;;37.72;26.63;;;;;;;0.92;87.46;100635.97;5095712;28;20078;-75
2021/01/25 10:22:25;;;;;;;35.47;25.00;;;;;;;0.98;88.19;100643.28;5085531;28;20378;-75
2021/01/25 10:24:50;;;;;;;36.00;24.07;;;;;;;1.03;87.23;100643.59;5102845;28;20328;-75
2021/01/25 10:27:16;;;;;;;31.93;23.37;;;;;;;1.11;86.93;100648.03;5115827;28;20490;-75
2021/01/25 10:29:41;;;;;;;30.23;23.98;;;;;;;1.18;86.25;100653.50;5115952;28;20059;-75
2021/01/25 10:32:06;;;;;;;35.80;23.97;;;;;;;1.26;86.19;100658.78;5115834;28;20023;-76
2021/01/25 10:34:32;;;;;;;34.17;22.97;;;;;;;1.28;86.17;100657.63;5108180;28;20024;-77
2021/01/25 10:36:57;;;;;;;38.63;25.13;;;;;;;1.36;85.80;100667.38;5108276;28;20015;-76
2021/01/25 10:39:22;;;;;;;31.27;24.30;;;;;;;1.40;86.52;100673.19;5114768;28;20073;-75
2021/01/25 10:41:48;;;;;;;29.20;23.73;;;;;;;1.47;86.75;100680.31;5115950;28;20047;-74
2021/01/25 10:44:17;;;;;;;29.80;23.47;;;;;;;1.50;85.09;100682.63;5087661;28;20329;-75
2021/01/25 10:46:42;;;;;;;29.13;22.75;;;;;;;1.54;85.14;100683.94;5103341;28;20028;-75
2021/01/25 10:49:08;;;;;;;25.27;20.13;;;;;;;1.56;85.24;100686.41;5113464;28;20020;-76
2021/01/25 10:51:33;;;;;;;27.20;22.80;;;;;;;1.65;86.23;100685.38;5111041;28;20086;-75
2021/01/25 10:53:59;;;;;;;26.10;19.07;;;;;;;1.69;84.25;100692.00;5092210;28;20028;-75
2021/01/25 10:56:25;;;;;;;26.00;20.17;;;;;;;1.75;84.45;100685.97;5079646;28;20035;-74
2021/01/25 10:58:50;;;;;;;27.10;19.13;;;;;;;1.77;84.73;100693.81;5113856;28;20024;-74
2021/01/25 11:01:15;;;;;;;26.30;18.40;;;;;;;1.83;84.33;100697.59;5116246;28;20080;-75
2021/01/25 11:03:41;;;;;;;25.50;18.70;;;;;;;1.88;84.15;100695.22;5096392;28;20039;-74
2021/01/25 11:06:06;;;;;;;26.43;18.83;;;;;;;1.93;83.57;100693.66;5114252;28;20023;-74
2021/01/25 11:08:31;;;;;;;26.00;19.93;;;;;;;1.96;83.53;100697.84;5118186;28;20780;-74
2021/01/25 11:10:57;;;;;;;24.00;19.23;;;;;;;2.06;84.03;100693.09;5119263;28;20404;-75
2021/01/25 11:13:22;;;;;;;25.67;19.00;;;;;;;1.96;82.35;100692.50;5100395;28;20241;-75
2021/01/25 11:15:47;;;;;;;24.93;18.60;;;;;;;1.98;82.86;100703.81;5119271;28;20527;-76
2021/01/25 11:18:13;;;;;;;23.63;18.03;;;;;;;1.96;82.52;100703.16;5103522;28;20036;-76